sensor_id;sensor_type;location;lat;lon;timestamp;P1;durP1;ratioP1;P2;durP2;ratioP2
61206;SDS011;47070;49.212;8.084;2022-11-20T00:01:49;748.47;;;695.67;;
61206;SDS011;47070;49.212;8.084;2022-11-20T00:05:50;755.97;;;702.97;;
61206;SDS011;47070;49.212;8.084;2022-11-20T00:09:50;731.37;;;679.00;;
61206;SDS011;47070;49.212;8.084;2022-11-20T00:13:52;749.47;;;696.55;;
61206;SDS011;47070;49.212;8.084;2022-11-20T00:17:54;738.47;;;685.97;;
61206;SDS011;47070;49.212;8.084;2022-11-20T00:21:55;735.37;;;682.80;;
61206;SDS011;47070;49.212;8.084;2022-11-20T00:25:55;749.40;;;696.53;;
61206;SDS011;47070;49.212;8.084;2022-11-20T00:29:56;740.10;;;687.50;;
61206;SDS011;47070;49.212;8.084;2022-11-20T00:33:56;744.23;;;691.53;;
61206;SDS011;47070;49.212;8.084;2022-11-20T00:37:57;739.60;;;687.00;;
61206;SDS011;47070;49.212;8.084;2022-11-20T00:41:57;739.33;;;686.67;;
61206;SDS011;47070;49.212;8.084;2022-11-20T00:46:02;753.13;;;700.13;;
61206;SDS011;47070;49.212;8.084;2022-11-20T00:50:04;746.40;;;693.67;;
61206;SDS011;47070;49.212;8.084;2022-11-20T00:54:05;750.25;;;697.30;;
61206;SDS011;47070;49.212;8.084;2022-11-20T00:58:06;752.05;;;699.05;;
61206;SDS011;47070;49.212;8.084;2022-11-20T01:02:06;745.97;;;693.27;;
61206;SDS011;47070;49.212;8.084;2022-11-20T01:06:11;745.30;;;692.57;;
61206;SDS011;47070;49.212;8.084;2022-11-20T01:10:13;753.07;;;700.17;;
61206;SDS011;47070;49.212;8.084;2022-11-20T01:14:17;756.37;;;703.37;;
61206;SDS011;47070;49.212;8.084;2022-11-20T01:18:19;757.25;;;704.25;;
61206;SDS011;47070;49.212;8.084;2022-11-20T01:22:19;746.33;;;693.53;;
61206;SDS011;47070;49.212;8.084;2022-11-20T01:26:21;758.90;;;705.70;;
61206;SDS011;47070;49.212;8.084;2022-11-20T01:30:23;760.47;;;707.17;;
61206;SDS011;47070;49.212;8.084;2022-11-20T01:34:24;747.63;;;694.83;;
61206;SDS011;47070;49.212;8.084;2022-11-20T01:38:25;745.30;;;692.45;;
61206;SDS011;47070;49.212;8.084;2022-11-20T01:42:25;749.80;;;696.90;;
61206;SDS011;47070;49.212;8.084;2022-11-20T01:46:50;757.15;;;704.10;;
61206;SDS011;47070;49.212;8.084;2022-11-20T01:50:58;751.10;;;698.17;;
61206;SDS011;47070;49.212;8.084;2022-11-20T01:55:01;756.08;;;703.08;;
61206;SDS011;47070;49.212;8.084;2022-11-20T01:59:07;756.13;;;703.13;;
61206;SDS011;47070;49.212;8.084;2022-11-20T02:03:11;746.43;;;693.53;;
61206;SDS011;47070;49.212;8.084;2022-11-20T02:07:14;746.30;;;693.53;;
61206;SDS011;47070;49.212;8.084;2022-11-20T02:11:15;754.08;;;701.28;;
61206;SDS011;47070;49.212;8.084;2022-11-20T02:15:16;754.70;;;701.72;;
61206;SDS011;47070;49.212;8.084;2022-11-20T02:19:24;753.90;;;700.87;;
61206;SDS011;47070;49.212;8.084;2022-11-20T02:23:50;749.78;;;696.90;;
61206;SDS011;47070;49.212;8.084;2022-11-20T02:27:54;755.50;;;702.50;;
61206;SDS011;47070;49.212;8.084;2022-11-20T02:31:55;743.50;;;690.70;;
61206;SDS011;47070;49.212;8.084;2022-11-20T02:35:57;750.20;;;697.40;;
61206;SDS011;47070;49.212;8.084;2022-11-20T02:39:58;747.27;;;694.43;;
61206;SDS011;47070;49.212;8.084;2022-11-20T02:43:58;747.88;;;695.10;;
61206;SDS011;47070;49.212;8.084;2022-11-20T02:47:59;739.33;;;686.75;;
61206;SDS011;47070;49.212;8.084;2022-11-20T02:52:00;762.40;;;709.25;;
61206;SDS011;47070;49.212;8.084;2022-11-20T02:56:00;754.70;;;701.83;;
61206;SDS011;47070;49.212;8.084;2022-11-20T03:00:02;766.40;;;713.10;;
61206;SDS011;47070;49.212;8.084;2022-11-20T03:04:03;764.92;;;711.72;;
61206;SDS011;47070;49.212;8.084;2022-11-20T03:08:04;758.17;;;704.90;;
61206;SDS011;47070;49.212;8.084;2022-11-20T03:12:04;751.13;;;698.13;;
61206;SDS011;47070;49.212;8.084;2022-11-20T03:16:12;756.10;;;703.00;;
61206;SDS011;47070;49.212;8.084;2022-11-20T03:20:15;760.60;;;707.28;;
61206;SDS011;47070;49.212;8.084;2022-11-20T03:24:15;746.85;;;694.13;;
61206;SDS011;47070;49.212;8.084;2022-11-20T03:28:16;749.47;;;696.63;;
61206;SDS011;47070;49.212;8.084;2022-11-20T03:32:17;766.77;;;713.50;;
61206;SDS011;47070;49.212;8.084;2022-11-20T03:36:18;766.13;;;712.83;;
61206;SDS011;47070;49.212;8.084;2022-11-20T03:40:19;768.60;;;715.25;;
61206;SDS011;47070;49.212;8.084;2022-11-20T03:44:20;772.73;;;719.53;;
61206;SDS011;47070;49.212;8.084;2022-11-20T03:48:21;773.90;;;720.50;;
61206;SDS011;47070;49.212;8.084;2022-11-20T03:52:22;766.93;;;713.80;;
61206;SDS011;47070;49.212;8.084;2022-11-20T03:56:23;779.33;;;725.85;;
61206;SDS011;47070;49.212;8.084;2022-11-20T04:00:34;783.97;;;730.47;;
61206;SDS011;47070;49.212;8.084;2022-11-20T04:04:35;777.90;;;724.50;;
61206;SDS011;47070;49.212;8.084;2022-11-20T04:08:35;801.03;;;747.07;;
61206;SDS011;47070;49.212;8.084;2022-11-20T04:12:36;783.97;;;730.72;;
61206;SDS011;47070;49.212;8.084;2022-11-20T04:16:36;795.20;;;741.75;;
61206;SDS011;47070;49.212;8.084;2022-11-20T04:20:37;814.03;;;759.93;;
61206;SDS011;47070;49.212;8.084;2022-11-20T04:24:37;823.40;;;769.30;;
61206;SDS011;47070;49.212;8.084;2022-11-20T04:28:38;841.80;;;787.20;;
61206;SDS011;47070;49.212;8.084;2022-11-20T04:32:39;861.95;;;806.65;;
61206;SDS011;47070;49.212;8.084;2022-11-20T04:36:39;879.03;;;823.07;;
61206;SDS011;47070;49.212;8.084;2022-11-20T04:40:40;879.83;;;823.93;;
61206;SDS011;47070;49.212;8.084;2022-11-20T04:44:41;890.25;;;834.08;;
61206;SDS011;47070;49.212;8.084;2022-11-20T04:48:41;883.73;;;827.83;;
61206;SDS011;47070;49.212;8.084;2022-11-20T04:52:42;888.55;;;832.55;;
61206;SDS011;47070;49.212;8.084;2022-11-20T04:56:42;889.53;;;833.47;;
61206;SDS011;47070;49.212;8.084;2022-11-20T05:00:43;887.37;;;831.13;;
61206;SDS011;47070;49.212;8.084;2022-11-20T05:04:43;871.97;;;816.35;;
61206;SDS011;47070;49.212;8.084;2022-11-20T05:08:44;880.30;;;824.60;;
61206;SDS011;47070;49.212;8.084;2022-11-20T05:12:44;879.33;;;823.63;;
61206;SDS011;47070;49.212;8.084;2022-11-20T05:16:45;885.22;;;829.22;;
61206;SDS011;47070;49.212;8.084;2022-11-20T05:20:45;891.17;;;835.00;;
61206;SDS011;47070;49.212;8.084;2022-11-20T05:24:46;888.07;;;832.03;;
61206;SDS011;47070;49.212;8.084;2022-11-20T05:28:47;895.00;;;838.57;;
61206;SDS011;47070;49.212;8.084;2022-11-20T05:32:47;891.50;;;835.20;;
61206;SDS011;47070;49.212;8.084;2022-11-20T05:36:48;898.80;;;842.27;;
61206;SDS011;47070;49.212;8.084;2022-11-20T05:40:48;898.93;;;842.47;;
61206;SDS011;47070;49.212;8.084;2022-11-20T05:44:49;903.63;;;846.97;;
61206;SDS011;47070;49.212;8.084;2022-11-20T05:48:49;880.40;;;824.70;;
61206;SDS011;47070;49.212;8.084;2022-11-20T05:52:50;886.90;;;830.83;;
61206;SDS011;47070;49.212;8.084;2022-11-20T05:56:51;881.37;;;825.40;;
61206;SDS011;47070;49.212;8.084;2022-11-20T06:00:51;871.20;;;815.60;;
61206;SDS011;47070;49.212;8.084;2022-11-20T06:04:52;869.47;;;813.97;;
61206;SDS011;47070;49.212;8.084;2022-11-20T06:08:52;873.50;;;817.97;;
61206;SDS011;47070;49.212;8.084;2022-11-20T06:12:56;866.58;;;811.10;;
61206;SDS011;47070;49.212;8.084;2022-11-20T06:16:58;857.00;;;801.92;;
61206;SDS011;47070;49.212;8.084;2022-11-20T06:21:08;844.85;;;790.15;;
61206;SDS011;47070;49.212;8.084;2022-11-20T06:25:11;845.88;;;791.17;;
61206;SDS011;47070;49.212;8.084;2022-11-20T06:29:12;846.75;;;792.03;;
61206;SDS011;47070;49.212;8.084;2022-11-20T06:33:13;855.63;;;800.67;;
61206;SDS011;47070;49.212;8.084;2022-11-20T06:37:13;870.50;;;815.00;;
61206;SDS011;47070;49.212;8.084;2022-11-20T06:41:18;841.70;;;787.10;;
61206;SDS011;47070;49.212;8.084;2022-11-20T06:45:19;856.58;;;801.58;;
61206;SDS011;47070;49.212;8.084;2022-11-20T06:49:21;860.20;;;805.08;;
61206;SDS011;47070;49.212;8.084;2022-11-20T06:53:21;868.92;;;813.53;;
61206;SDS011;47070;49.212;8.084;2022-11-20T06:57:22;867.97;;;812.58;;
61206;SDS011;47070;49.212;8.084;2022-11-20T07:01:23;865.95;;;810.65;;
61206;SDS011;47070;49.212;8.084;2022-11-20T07:05:23;860.50;;;805.37;;
61206;SDS011;47070;49.212;8.084;2022-11-20T07:09:24;853.28;;;798.47;;
61206;SDS011;47070;49.212;8.084;2022-11-20T07:13:25;854.50;;;799.23;;
61206;SDS011;47070;49.212;8.084;2022-11-20T07:17:26;852.67;;;797.70;;
61206;SDS011;47070;49.212;8.084;2022-11-20T07:21:26;850.92;;;796.13;;
61206;SDS011;47070;49.212;8.084;2022-11-20T07:25:27;865.00;;;809.67;;
61206;SDS011;47070;49.212;8.084;2022-11-20T07:29:28;867.60;;;812.30;;
61206;SDS011;47070;49.212;8.084;2022-11-20T07:33:29;874.13;;;818.50;;
61206;SDS011;47070;49.212;8.084;2022-11-20T07:37:30;876.37;;;820.60;;
61206;SDS011;47070;49.212;8.084;2022-11-20T07:41:33;867.28;;;811.97;;
61206;SDS011;47070;49.212;8.084;2022-11-20T07:45:34;870.83;;;815.43;;
61206;SDS011;47070;49.212;8.084;2022-11-20T07:49:34;874.43;;;818.73;;
61206;SDS011;47070;49.212;8.084;2022-11-20T07:53:35;876.80;;;820.53;;
61206;SDS011;47070;49.212;8.084;2022-11-20T07:57:35;865.30;;;809.80;;
61206;SDS011;47070;49.212;8.084;2022-11-20T08:01:36;862.03;;;806.88;;
61206;SDS011;47070;49.212;8.084;2022-11-20T08:05:37;868.75;;;813.30;;
61206;SDS011;47070;49.212;8.084;2022-11-20T08:09:37;856.33;;;801.13;;
61206;SDS011;47070;49.212;8.084;2022-11-20T08:13:38;853.90;;;798.80;;
61206;SDS011;47070;49.212;8.084;2022-11-20T08:18:04;867.00;;;811.53;;
61206;SDS011;47070;49.212;8.084;2022-11-20T08:22:06;856.92;;;801.78;;
61206;SDS011;47070;49.212;8.084;2022-11-20T08:26:07;870.72;;;815.20;;
61206;SDS011;47070;49.212;8.084;2022-11-20T08:30:08;867.90;;;812.60;;
61206;SDS011;47070;49.212;8.084;2022-11-20T08:34:09;879.67;;;824.03;;
61206;SDS011;47070;49.212;8.084;2022-11-20T08:38:10;896.10;;;839.93;;
61206;SDS011;47070;49.212;8.084;2022-11-20T08:42:10;923.57;;;866.57;;
61206;SDS011;47070;49.212;8.084;2022-11-20T08:46:11;922.37;;;865.37;;
61206;SDS011;47070;49.212;8.084;2022-11-20T08:50:12;935.47;;;878.13;;
61206;SDS011;47070;49.212;8.084;2022-11-20T08:54:14;942.23;;;884.30;;
61206;SDS011;47070;49.212;8.084;2022-11-20T08:58:15;947.57;;;889.93;;
61206;SDS011;47070;49.212;8.084;2022-11-20T09:02:15;952.47;;;894.67;;
61206;SDS011;47070;49.212;8.084;2022-11-20T09:06:16;949.43;;;891.60;;
61206;SDS011;47070;49.212;8.084;2022-11-20T09:10:17;948.90;;;891.20;;
61206;SDS011;47070;49.212;8.084;2022-11-20T09:14:17;961.55;;;902.88;;
61206;SDS011;47070;49.212;8.084;2022-11-20T09:18:18;955.33;;;897.23;;
61206;SDS011;47070;49.212;8.084;2022-11-20T09:22:18;949.75;;;891.85;;
61206;SDS011;47070;49.212;8.084;2022-11-20T09:26:19;933.10;;;875.63;;
61206;SDS011;47070;49.212;8.084;2022-11-20T09:30:19;911.50;;;854.95;;
61206;SDS011;47070;49.212;8.084;2022-11-20T09:34:20;931.00;;;873.70;;
61206;SDS011;47070;49.212;8.084;2022-11-20T09:38:20;938.38;;;880.92;;
61206;SDS011;47070;49.212;8.084;2022-11-20T09:50:50;933.10;;;876.00;;
61206;SDS011;47070;49.212;8.084;2022-11-20T09:55:00;945.53;;;887.90;;
61206;SDS011;47070;49.212;8.084;2022-11-20T09:59:02;954.35;;;896.33;;
61206;SDS011;47070;49.212;8.084;2022-11-20T10:03:11;978.22;;;919.53;;
61206;SDS011;47070;49.212;8.084;2022-11-20T10:07:17;992.47;;;933.27;;
61206;SDS011;47070;49.212;8.084;2022-11-20T10:11:48;998.97;;;939.47;;
61206;SDS011;47070;49.212;8.084;2022-11-20T10:16:20;1011.78;;;951.72;;
61206;SDS011;47070;49.212;8.084;2022-11-20T10:20:29;1008.07;;;948.27;;
61206;SDS011;47070;49.212;8.084;2022-11-20T10:29:17;1027.30;;;966.72;;
61206;SDS011;47070;49.212;8.084;2022-11-20T10:33:33;1031.40;;;970.70;;
61206;SDS011;47070;49.212;8.084;2022-11-20T10:37:37;1047.00;;;985.83;;
61206;SDS011;47070;49.212;8.084;2022-11-20T10:41:41;1056.82;;;995.13;;
61206;SDS011;47070;49.212;8.084;2022-11-20T10:46:17;1058.07;;;996.20;;
61206;SDS011;47070;49.212;8.084;2022-11-20T10:50:16;1052.60;;;990.80;;
61206;SDS011;47070;49.212;8.084;2022-11-20T10:58:41;1047.85;;;986.35;;
61206;SDS011;47070;49.212;8.084;2022-11-20T11:02:54;1065.45;;;999.90;;
61206;SDS011;47070;49.212;8.084;2022-11-20T11:06:58;1046.70;;;985.40;;
61206;SDS011;47070;49.212;8.084;2022-11-20T11:11:14;1040.00;;;979.08;;
61206;SDS011;47070;49.212;8.084;2022-11-20T11:15:25;1044.57;;;983.37;;
61206;SDS011;47070;49.212;8.084;2022-11-20T11:19:39;1043.18;;;982.25;;
61206;SDS011;47070;49.212;8.084;2022-11-20T11:23:41;1042.40;;;981.20;;
61206;SDS011;47070;49.212;8.084;2022-11-20T11:27:46;1023.25;;;962.92;;
61206;SDS011;47070;49.212;8.084;2022-11-20T11:31:48;1022.50;;;962.00;;
61206;SDS011;47070;49.212;8.084;2022-11-20T11:35:49;1023.13;;;962.77;;
61206;SDS011;47070;49.212;8.084;2022-11-20T11:39:56;1010.25;;;950.22;;
61206;SDS011;47070;49.212;8.084;2022-11-20T11:43:58;1021.43;;;960.83;;
61206;SDS011;47070;49.212;8.084;2022-11-20T11:48:21;1007.47;;;947.53;;
61206;SDS011;47070;49.212;8.084;2022-11-20T11:52:22;1013.77;;;953.67;;
61206;SDS011;47070;49.212;8.084;2022-11-20T11:56:25;1019.78;;;959.58;;
61206;SDS011;47070;49.212;8.084;2022-11-20T12:00:28;1030.97;;;970.25;;
61206;SDS011;47070;49.212;8.084;2022-11-20T12:04:46;1042.80;;;981.70;;
61206;SDS011;47070;49.212;8.084;2022-11-20T12:08:57;1054.47;;;992.70;;
61206;SDS011;47070;49.212;8.084;2022-11-20T12:13:04;1055.07;;;993.20;;
61206;SDS011;47070;49.212;8.084;2022-11-20T12:17:29;1086.32;;;999.90;;
61206;SDS011;47070;49.212;8.084;2022-11-20T12:26:03;1093.95;;;999.90;;
61206;SDS011;47070;49.212;8.084;2022-11-20T12:30:14;1088.95;;;999.90;;
61206;SDS011;47070;49.212;8.084;2022-11-20T12:42:54;1062.80;;;999.90;;
61206;SDS011;47070;49.212;8.084;2022-11-20T12:56:16;1030.20;;;969.72;;
61206;SDS011;47070;49.212;8.084;2022-11-20T13:00:24;1026.40;;;965.97;;
61206;SDS011;47070;49.212;8.084;2022-11-20T13:08:58;1013.38;;;953.47;;
61206;SDS011;47070;49.212;8.084;2022-11-20T13:13:21;1013.28;;;952.78;;
61206;SDS011;47070;49.212;8.084;2022-11-20T13:17:36;1016.42;;;956.30;;
61206;SDS011;47070;49.212;8.084;2022-11-20T13:21:48;1012.38;;;952.40;;
61206;SDS011;47070;49.212;8.084;2022-11-20T13:25:50;1002.33;;;942.60;;
61206;SDS011;47070;49.212;8.084;2022-11-20T13:34:24;999.13;;;939.73;;
61206;SDS011;47070;49.212;8.084;2022-11-20T13:38:26;1010.20;;;950.50;;
61206;SDS011;47070;49.212;8.084;2022-11-20T13:42:27;1015.03;;;954.92;;
61206;SDS011;47070;49.212;8.084;2022-11-20T13:46:35;1016.28;;;956.33;;
61206;SDS011;47070;49.212;8.084;2022-11-20T13:54:55;1019.97;;;959.88;;
61206;SDS011;47070;49.212;8.084;2022-11-20T14:03:28;1020.47;;;959.92;;
61206;SDS011;47070;49.212;8.084;2022-11-20T14:07:39;1015.95;;;955.90;;
61206;SDS011;47070;49.212;8.084;2022-11-20T14:11:46;1004.67;;;945.08;;
61206;SDS011;47070;49.212;8.084;2022-11-20T14:15:47;1003.38;;;943.70;;
61206;SDS011;47070;49.212;8.084;2022-11-20T14:20:14;993.78;;;933.88;;
61206;SDS011;47070;49.212;8.084;2022-11-20T14:24:22;989.03;;;929.72;;
61206;SDS011;47070;49.212;8.084;2022-11-20T14:28:25;991.03;;;931.33;;
61206;SDS011;47070;49.212;8.084;2022-11-20T14:32:28;973.40;;;914.42;;
61206;SDS011;47070;49.212;8.084;2022-11-20T14:36:30;959.92;;;901.72;;
61206;SDS011;47070;49.212;8.084;2022-11-20T14:40:32;969.93;;;911.10;;
61206;SDS011;47070;49.212;8.084;2022-11-20T14:44:35;957.77;;;899.67;;
61206;SDS011;47070;49.212;8.084;2022-11-20T14:53:09;958.08;;;900.03;;
61206;SDS011;47070;49.212;8.084;2022-11-20T14:57:18;957.00;;;899.00;;
61206;SDS011;47070;49.212;8.084;2022-11-20T15:01:30;965.75;;;907.35;;
61206;SDS011;47070;49.212;8.084;2022-11-20T15:05:45;974.03;;;915.37;;
61206;SDS011;47070;49.212;8.084;2022-11-20T15:09:58;967.80;;;909.38;;
61206;SDS011;47070;49.212;8.084;2022-11-20T15:14:04;959.85;;;901.65;;
61206;SDS011;47070;49.212;8.084;2022-11-20T15:18:10;962.67;;;904.13;;
61206;SDS011;47070;49.212;8.084;2022-11-20T15:22:15;960.10;;;901.85;;
61206;SDS011;47070;49.212;8.084;2022-11-20T15:26:23;950.27;;;892.57;;
61206;SDS011;47070;49.212;8.084;2022-11-20T15:30:26;952.95;;;894.95;;
61206;SDS011;47070;49.212;8.084;2022-11-20T15:34:27;958.63;;;900.55;;
61206;SDS011;47070;49.212;8.084;2022-11-20T15:38:27;959.92;;;901.65;;
61206;SDS011;47070;49.212;8.084;2022-11-20T15:42:28;954.83;;;896.70;;
61206;SDS011;47070;49.212;8.084;2022-11-20T15:46:32;951.60;;;893.50;;
61206;SDS011;47070;49.212;8.084;2022-11-20T15:54:53;941.42;;;883.67;;
61206;SDS011;47070;49.212;8.084;2022-11-20T15:58:54;926.80;;;869.53;;
61206;SDS011;47070;49.212;8.084;2022-11-20T16:02:55;923.97;;;866.37;;
61206;SDS011;47070;49.212;8.084;2022-11-20T16:06:55;912.53;;;855.70;;
61206;SDS011;47070;49.212;8.084;2022-11-20T16:10:55;913.70;;;856.90;;
61206;SDS011;47070;49.212;8.084;2022-11-20T16:14:56;922.70;;;865.67;;
61206;SDS011;47070;49.212;8.084;2022-11-20T16:19:15;908.55;;;852.15;;
61206;SDS011;47070;49.212;8.084;2022-11-20T16:23:17;917.88;;;861.25;;
61206;SDS011;47070;49.212;8.084;2022-11-20T16:27:17;905.40;;;848.97;;
61206;SDS011;47070;49.212;8.084;2022-11-20T16:31:18;913.70;;;857.10;;
61206;SDS011;47070;49.212;8.084;2022-11-20T16:35:19;906.47;;;850.07;;
61206;SDS011;47070;49.212;8.084;2022-11-20T16:39:19;903.00;;;846.90;;
61206;SDS011;47070;49.212;8.084;2022-11-20T16:43:20;913.37;;;856.80;;
61206;SDS011;47070;49.212;8.084;2022-11-20T16:47:20;914.50;;;857.73;;
61206;SDS011;47070;49.212;8.084;2022-11-20T16:51:21;911.97;;;855.35;;
61206;SDS011;47070;49.212;8.084;2022-11-20T16:55:23;925.95;;;867.97;;
61206;SDS011;47070;49.212;8.084;2022-11-20T16:59:23;919.50;;;862.20;;
61206;SDS011;47070;49.212;8.084;2022-11-20T17:03:24;928.95;;;871.75;;
61206;SDS011;47070;49.212;8.084;2022-11-20T17:07:24;920.90;;;864.00;;
61206;SDS011;47070;49.212;8.084;2022-11-20T17:11:25;915.45;;;858.65;;
61206;SDS011;47070;49.212;8.084;2022-11-20T17:15:26;923.27;;;866.07;;
61206;SDS011;47070;49.212;8.084;2022-11-20T17:19:27;913.63;;;856.53;;
61206;SDS011;47070;49.212;8.084;2022-11-20T17:23:28;895.53;;;839.40;;
61206;SDS011;47070;49.212;8.084;2022-11-20T17:27:29;892.20;;;835.90;;
61206;SDS011;47070;49.212;8.084;2022-11-20T17:31:30;878.30;;;822.42;;
61206;SDS011;47070;49.212;8.084;2022-11-20T17:35:34;874.55;;;819.00;;
61206;SDS011;47070;49.212;8.084;2022-11-20T17:39:35;875.72;;;819.88;;
61206;SDS011;47070;49.212;8.084;2022-11-20T17:43:36;886.17;;;830.00;;
61206;SDS011;47070;49.212;8.084;2022-11-20T17:47:37;887.73;;;831.73;;
61206;SDS011;47070;49.212;8.084;2022-11-20T17:51:37;881.70;;;826.07;;
61206;SDS011;47070;49.212;8.084;2022-11-20T17:55:38;879.07;;;823.17;;
61206;SDS011;47070;49.212;8.084;2022-11-20T17:59:57;890.55;;;834.25;;
61206;SDS011;47070;49.212;8.084;2022-11-20T18:03:57;903.00;;;846.63;;
61206;SDS011;47070;49.212;8.084;2022-11-20T18:07:58;909.22;;;852.83;;
61206;SDS011;47070;49.212;8.084;2022-11-20T18:11:58;910.50;;;853.93;;
61206;SDS011;47070;49.212;8.084;2022-11-20T18:16:05;918.27;;;861.47;;
61206;SDS011;47070;49.212;8.084;2022-11-20T18:20:06;927.90;;;870.77;;
61206;SDS011;47070;49.212;8.084;2022-11-20T18:24:08;920.38;;;863.60;;
61206;SDS011;47070;49.212;8.084;2022-11-20T18:28:09;909.20;;;852.63;;
61206;SDS011;47070;49.212;8.084;2022-11-20T18:32:09;920.97;;;864.07;;
61206;SDS011;47070;49.212;8.084;2022-11-20T18:36:11;910.27;;;853.87;;
61206;SDS011;47070;49.212;8.084;2022-11-20T18:40:13;913.95;;;857.53;;
61206;SDS011;47070;49.212;8.084;2022-11-20T18:44:20;902.80;;;846.60;;
61206;SDS011;47070;49.212;8.084;2022-11-20T18:48:41;902.00;;;845.70;;
61206;SDS011;47070;49.212;8.084;2022-11-20T18:52:41;897.20;;;841.00;;
61206;SDS011;47070;49.212;8.084;2022-11-20T18:56:43;893.97;;;837.75;;
61206;SDS011;47070;49.212;8.084;2022-11-20T19:00:43;878.43;;;823.00;;
61206;SDS011;47070;49.212;8.084;2022-11-20T19:04:44;883.67;;;828.17;;
61206;SDS011;47070;49.212;8.084;2022-11-20T19:08:45;886.22;;;830.47;;
61206;SDS011;47070;49.212;8.084;2022-11-20T19:12:46;888.53;;;832.53;;
61206;SDS011;47070;49.212;8.084;2022-11-20T19:16:46;878.78;;;822.92;;
61206;SDS011;47070;49.212;8.084;2022-11-20T19:20:47;875.50;;;820.10;;
61206;SDS011;47070;49.212;8.084;2022-11-20T19:24:47;887.27;;;831.27;;
61206;SDS011;47070;49.212;8.084;2022-11-20T19:28:48;872.72;;;817.33;;
61206;SDS011;47070;49.212;8.084;2022-11-20T19:32:49;874.37;;;818.97;;
61206;SDS011;47070;49.212;8.084;2022-11-20T19:36:50;871.70;;;816.03;;
61206;SDS011;47070;49.212;8.084;2022-11-20T19:40:50;864.00;;;809.00;;
61206;SDS011;47070;49.212;8.084;2022-11-20T19:44:51;871.22;;;815.78;;
61206;SDS011;47070;49.212;8.084;2022-11-20T19:48:52;881.63;;;826.03;;
61206;SDS011;47070;49.212;8.084;2022-11-20T19:52:55;878.55;;;823.05;;
61206;SDS011;47070;49.212;8.084;2022-11-20T19:56:55;885.07;;;829.43;;
61206;SDS011;47070;49.212;8.084;2022-11-20T20:00:56;891.40;;;835.42;;
61206;SDS011;47070;49.212;8.084;2022-11-20T20:04:56;889.60;;;833.73;;
61206;SDS011;47070;49.212;8.084;2022-11-20T20:08:58;890.80;;;834.93;;
61206;SDS011;47070;49.212;8.084;2022-11-20T20:13:00;887.47;;;831.67;;
61206;SDS011;47070;49.212;8.084;2022-11-20T20:17:01;896.37;;;840.30;;
61206;SDS011;47070;49.212;8.084;2022-11-20T20:21:05;896.33;;;840.13;;
61206;SDS011;47070;49.212;8.084;2022-11-20T20:25:10;899.13;;;842.90;;
61206;SDS011;47070;49.212;8.084;2022-11-20T20:29:11;906.50;;;849.90;;
61206;SDS011;47070;49.212;8.084;2022-11-20T20:33:11;905.08;;;848.67;;
61206;SDS011;47070;49.212;8.084;2022-11-20T20:37:12;920.60;;;863.80;;
61206;SDS011;47070;49.212;8.084;2022-11-20T20:41:12;926.30;;;869.28;;
61206;SDS011;47070;49.212;8.084;2022-11-20T20:45:13;948.13;;;890.38;;
61206;SDS011;47070;49.212;8.084;2022-11-20T20:49:14;954.20;;;896.22;;
61206;SDS011;47070;49.212;8.084;2022-11-20T20:53:15;958.03;;;899.80;;
61206;SDS011;47070;49.212;8.084;2022-11-20T20:57:15;960.03;;;901.83;;
61206;SDS011;47070;49.212;8.084;2022-11-20T21:01:16;967.57;;;909.27;;
61206;SDS011;47070;49.212;8.084;2022-11-20T21:05:18;968.67;;;910.17;;
61206;SDS011;47070;49.212;8.084;2022-11-20T21:09:18;969.23;;;910.57;;
61206;SDS011;47070;49.212;8.084;2022-11-20T21:13:20;966.50;;;908.17;;
61206;SDS011;47070;49.212;8.084;2022-11-20T21:17:22;973.03;;;914.53;;
61206;SDS011;47070;49.212;8.084;2022-11-20T21:21:22;963.15;;;904.92;;
61206;SDS011;47070;49.212;8.084;2022-11-20T21:25:41;973.35;;;914.85;;
61206;SDS011;47070;49.212;8.084;2022-11-20T21:29:42;976.27;;;917.67;;
61206;SDS011;47070;49.212;8.084;2022-11-20T21:33:46;967.85;;;909.55;;
61206;SDS011;47070;49.212;8.084;2022-11-20T21:37:47;975.60;;;916.97;;
61206;SDS011;47070;49.212;8.084;2022-11-20T21:41:48;976.63;;;918.03;;
61206;SDS011;47070;49.212;8.084;2022-11-20T21:45:48;979.33;;;920.53;;
61206;SDS011;47070;49.212;8.084;2022-11-20T21:49:50;976.80;;;918.10;;
61206;SDS011;47070;49.212;8.084;2022-11-20T21:53:51;973.70;;;915.03;;
61206;SDS011;47070;49.212;8.084;2022-11-20T21:57:53;972.55;;;914.13;;
61206;SDS011;47070;49.212;8.084;2022-11-20T22:01:54;974.33;;;915.63;;
61206;SDS011;47070;49.212;8.084;2022-11-20T22:05:56;977.33;;;918.63;;
61206;SDS011;47070;49.212;8.084;2022-11-20T22:09:58;972.13;;;913.55;;
61206;SDS011;47070;49.212;8.084;2022-11-20T22:13:58;965.55;;;907.25;;
61206;SDS011;47070;49.212;8.084;2022-11-20T22:18:17;968.78;;;910.38;;
61206;SDS011;47070;49.212;8.084;2022-11-20T22:22:21;967.57;;;909.27;;
61206;SDS011;47070;49.212;8.084;2022-11-20T22:26:23;968.80;;;910.37;;
61206;SDS011;47070;49.212;8.084;2022-11-20T22:30:27;974.97;;;916.17;;
61206;SDS011;47070;49.212;8.084;2022-11-20T22:34:28;965.60;;;907.40;;
61206;SDS011;47070;49.212;8.084;2022-11-20T22:38:29;967.25;;;908.92;;
61206;SDS011;47070;49.212;8.084;2022-11-20T22:42:30;964.70;;;906.38;;
61206;SDS011;47070;49.212;8.084;2022-11-20T22:46:31;956.35;;;898.35;;
61206;SDS011;47070;49.212;8.084;2022-11-20T22:50:33;961.80;;;903.60;;
61206;SDS011;47070;49.212;8.084;2022-11-20T22:54:34;940.87;;;883.37;;
61206;SDS011;47070;49.212;8.084;2022-11-20T22:58:35;943.60;;;886.08;;
61206;SDS011;47070;49.212;8.084;2022-11-20T23:02:36;933.30;;;875.97;;
61206;SDS011;47070;49.212;8.084;2022-11-20T23:06:42;938.83;;;881.25;;
61206;SDS011;47070;49.212;8.084;2022-11-20T23:10:42;928.65;;;871.65;;
61206;SDS011;47070;49.212;8.084;2022-11-20T23:14:43;929.47;;;872.33;;
61206;SDS011;47070;49.212;8.084;2022-11-20T23:18:43;938.90;;;881.42;;
61206;SDS011;47070;49.212;8.084;2022-11-20T23:22:44;942.08;;;884.67;;
61206;SDS011;47070;49.212;8.084;2022-11-20T23:26:44;946.00;;;888.30;;
61206;SDS011;47070;49.212;8.084;2022-11-20T23:30:46;954.15;;;896.13;;
61206;SDS011;47070;49.212;8.084;2022-11-20T23:34:47;937.08;;;879.75;;
61206;SDS011;47070;49.212;8.084;2022-11-20T23:38:47;945.57;;;887.97;;
61206;SDS011;47070;49.212;8.084;2022-11-20T23:42:48;951.15;;;893.22;;
61206;SDS011;47070;49.212;8.084;2022-11-20T23:47:07;949.88;;;891.90;;
61206;SDS011;47070;49.212;8.084;2022-11-20T23:51:08;955.17;;;897.17;;
61206;SDS011;47070;49.212;8.084;2022-11-20T23:55:08;948.67;;;891.00;;
61206;SDS011;47070;49.212;8.084;2022-11-20T23:59:09;945.60;;;888.07;;
